sensor_id;sensor_type;location;lat;lon;timestamp;pressure;altitude;pressure_sealevel;temperature
32827;BMP280;51059;42.058;27.986;2023-09-19T00:00:46;100853.34;;;34.77
32827;BMP280;51059;42.058;27.986;2023-09-19T00:03:15;100862.34;;;35.04
32827;BMP280;51059;42.058;27.986;2023-09-19T00:05:42;100843.00;;;35.26
32827;BMP280;51059;42.058;27.986;2023-09-19T00:08:11;100844.38;;;35.00
32827;BMP280;51059;42.058;27.986;2023-09-19T00:10:39;100849.84;;;34.61
32827;BMP280;51059;42.058;27.986;2023-09-19T00:13:06;100845.25;;;34.66
32827;BMP280;51059;42.058;27.986;2023-09-19T00:15:42;100852.81;;;34.54
32827;BMP280;51059;42.058;27.986;2023-09-19T00:18:08;100843.50;;;35.17
32827;BMP280;51059;42.058;27.986;2023-09-19T00:20:38;100840.25;;;35.45
32827;BMP280;51059;42.058;27.986;2023-09-19T00:23:05;100835.06;;;35.13
32827;BMP280;51059;42.058;27.986;2023-09-19T00:25:31;100822.28;;;35.41
32827;BMP280;51059;42.058;27.986;2023-09-19T00:28:06;100830.22;;;34.56
32827;BMP280;51059;42.058;27.986;2023-09-19T00:30:34;100826.22;;;35.16
32827;BMP280;51059;42.058;27.986;2023-09-19T00:33:00;100822.59;;;35.35
32827;BMP280;51059;42.058;27.986;2023-09-19T00:35:27;100835.09;;;34.62
32827;BMP280;51059;42.058;27.986;2023-09-19T00:37:53;100829.28;;;35.41
32827;BMP280;51059;42.058;27.986;2023-09-19T00:40:21;100820.47;;;35.27
32827;BMP280;51059;42.058;27.986;2023-09-19T00:42:48;100832.81;;;34.72
32827;BMP280;51059;42.058;27.986;2023-09-19T00:47:50;100825.41;;;34.65
32827;BMP280;51059;42.058;27.986;2023-09-19T00:50:19;100812.34;;;35.01
32827;BMP280;51059;42.058;27.986;2023-09-19T00:52:47;100821.22;;;33.93
32827;BMP280;51059;42.058;27.986;2023-09-19T00:55:15;100818.56;;;34.64
32827;BMP280;51059;42.058;27.986;2023-09-19T00:57:43;100816.78;;;34.30
32827;BMP280;51059;42.058;27.986;2023-09-19T01:00:11;100817.97;;;34.76
32827;BMP280;51059;42.058;27.986;2023-09-19T01:02:43;100804.66;;;34.65
32827;BMP280;51059;42.058;27.986;2023-09-19T01:05:10;100810.88;;;34.79
32827;BMP280;51059;42.058;27.986;2023-09-19T01:07:36;100807.72;;;34.73
32827;BMP280;51059;42.058;27.986;2023-09-19T01:10:11;100820.53;;;34.07
32827;BMP280;51059;42.058;27.986;2023-09-19T01:20:54;100817.03;;;34.42
32827;BMP280;51059;42.058;27.986;2023-09-19T01:23:34;100818.81;;;34.24
32827;BMP280;51059;42.058;27.986;2023-09-19T01:29:01;100798.38;;;35.51
32827;BMP280;51059;42.058;27.986;2023-09-19T01:31:37;100799.72;;;34.77
32827;BMP280;51059;42.058;27.986;2023-09-19T01:34:04;100817.13;;;34.41
32827;BMP280;51059;42.058;27.986;2023-09-19T01:36:32;100820.16;;;34.32
32827;BMP280;51059;42.058;27.986;2023-09-19T01:39:11;100804.69;;;34.47
32827;BMP280;51059;42.058;27.986;2023-09-19T01:41:54;100821.34;;;34.60
32827;BMP280;51059;42.058;27.986;2023-09-19T01:47:41;100823.50;;;34.52
32827;BMP280;51059;42.058;27.986;2023-09-19T01:52:40;100806.91;;;34.20
32827;BMP280;51059;42.058;27.986;2023-09-19T01:55:09;100813.72;;;33.69
32827;BMP280;51059;42.058;27.986;2023-09-19T01:57:51;100800.34;;;34.99
32827;BMP280;51059;42.058;27.986;2023-09-19T02:00:21;100804.00;;;33.55
32827;BMP280;51059;42.058;27.986;2023-09-19T02:02:50;100800.78;;;34.39
32827;BMP280;51059;42.058;27.986;2023-09-19T02:05:25;100797.75;;;34.48
32827;BMP280;51059;42.058;27.986;2023-09-19T02:07:52;100802.28;;;35.27
32827;BMP280;51059;42.058;27.986;2023-09-19T02:10:19;100797.25;;;34.91
32827;BMP280;51059;42.058;27.986;2023-09-19T02:12:45;100813.91;;;34.54
32827;BMP280;51059;42.058;27.986;2023-09-19T02:15:11;100816.47;;;34.36
32827;BMP280;51059;42.058;27.986;2023-09-19T02:17:37;100800.13;;;34.18
32827;BMP280;51059;42.058;27.986;2023-09-19T02:20:03;100808.81;;;35.02
32827;BMP280;51059;42.058;27.986;2023-09-19T02:22:36;100804.28;;;34.89
32827;BMP280;51059;42.058;27.986;2023-09-19T02:25:04;100821.69;;;33.83
32827;BMP280;51059;42.058;27.986;2023-09-19T02:27:31;100795.66;;;35.05
32827;BMP280;51059;42.058;27.986;2023-09-19T02:29:57;100813.53;;;34.61
32827;BMP280;51059;42.058;27.986;2023-09-19T02:32:23;100815.53;;;34.21
32827;BMP280;51059;42.058;27.986;2023-09-19T02:34:49;100806.34;;;34.66
32827;BMP280;51059;42.058;27.986;2023-09-19T02:37:17;100805.19;;;34.71
32827;BMP280;51059;42.058;27.986;2023-09-19T02:39:44;100795.38;;;35.58
32827;BMP280;51059;42.058;27.986;2023-09-19T02:42:10;100799.84;;;34.58
32827;BMP280;51059;42.058;27.986;2023-09-19T02:44:36;100816.09;;;34.78
32827;BMP280;51059;42.058;27.986;2023-09-19T02:47:03;100800.22;;;34.67
32827;BMP280;51059;42.058;27.986;2023-09-19T02:49:29;100799.56;;;34.12
32827;BMP280;51059;42.058;27.986;2023-09-19T02:51:55;100809.69;;;34.52
32827;BMP280;51059;42.058;27.986;2023-09-19T02:54:24;100811.25;;;34.38
32827;BMP280;51059;42.058;27.986;2023-09-19T02:56:51;100811.06;;;34.06
32827;BMP280;51059;42.058;27.986;2023-09-19T02:59:17;100803.94;;;34.28
32827;BMP280;51059;42.058;27.986;2023-09-19T03:01:45;100813.09;;;35.03
32827;BMP280;51059;42.058;27.986;2023-09-19T03:04:14;100822.44;;;34.38
32827;BMP280;51059;42.058;27.986;2023-09-19T03:06:45;100817.50;;;34.16
32827;BMP280;51059;42.058;27.986;2023-09-19T03:09:11;100817.00;;;34.60
32827;BMP280;51059;42.058;27.986;2023-09-19T03:11:38;100810.38;;;34.37
32827;BMP280;51059;42.058;27.986;2023-09-19T03:14:05;100810.38;;;34.37
32827;BMP280;51059;42.058;27.986;2023-09-19T03:16:32;100817.69;;;34.64
32827;BMP280;51059;42.058;27.986;2023-09-19T03:18:59;100814.59;;;34.05
32827;BMP280;51059;42.058;27.986;2023-09-19T03:21:25;100834.13;;;34.64
32827;BMP280;51059;42.058;27.986;2023-09-19T03:23:51;100805.56;;;34.30
32827;BMP280;51059;42.058;27.986;2023-09-19T03:26:17;100813.69;;;34.05
32827;BMP280;51059;42.058;27.986;2023-09-19T03:28:43;100807.41;;;34.10
32827;BMP280;51059;42.058;27.986;2023-09-19T03:31:10;100817.25;;;34.89
32827;BMP280;51059;42.058;27.986;2023-09-19T03:33:37;100802.22;;;34.62
32827;BMP280;51059;42.058;27.986;2023-09-19T03:36:04;100816.28;;;35.08
32827;BMP280;51059;42.058;27.986;2023-09-19T03:38:31;100817.34;;;33.83
32827;BMP280;51059;42.058;27.986;2023-09-19T03:40:58;100826.53;;;34.60
32827;BMP280;51059;42.058;27.986;2023-09-19T03:43:24;100818.53;;;34.30
32827;BMP280;51059;42.058;27.986;2023-09-19T03:45:50;100817.31;;;34.55
32827;BMP280;51059;42.058;27.986;2023-09-19T03:48:19;100822.53;;;34.87
32827;BMP280;51059;42.058;27.986;2023-09-19T03:50:45;100811.22;;;34.56
32827;BMP280;51059;42.058;27.986;2023-09-19T03:53:10;100828.16;;;34.10
32827;BMP280;51059;42.058;27.986;2023-09-19T03:55:36;100838.22;;;33.98
32827;BMP280;51059;42.058;27.986;2023-09-19T03:58:04;100812.81;;;34.74
32827;BMP280;51059;42.058;27.986;2023-09-19T04:00:30;100816.38;;;34.21
32827;BMP280;51059;42.058;27.986;2023-09-19T04:03:02;100815.94;;;34.30
32827;BMP280;51059;42.058;27.986;2023-09-19T04:05:31;100809.16;;;34.62
32827;BMP280;51059;42.058;27.986;2023-09-19T04:07:59;100806.13;;;35.03
32827;BMP280;51059;42.058;27.986;2023-09-19T04:10:25;100811.38;;;34.69
32827;BMP280;51059;42.058;27.986;2023-09-19T04:12:52;100799.94;;;34.89
32827;BMP280;51059;42.058;27.986;2023-09-19T04:15:19;100814.88;;;34.52
32827;BMP280;51059;42.058;27.986;2023-09-19T04:17:45;100815.00;;;34.83
32827;BMP280;51059;42.058;27.986;2023-09-19T04:20:12;100811.84;;;36.19
32827;BMP280;51059;42.058;27.986;2023-09-19T04:22:38;100821.75;;;35.98
32827;BMP280;51059;42.058;27.986;2023-09-19T04:25:05;100821.22;;;36.81
32827;BMP280;51059;42.058;27.986;2023-09-19T04:27:34;100825.31;;;37.83
32827;BMP280;51059;42.058;27.986;2023-09-19T04:30:00;100824.44;;;38.09
32827;BMP280;51059;42.058;27.986;2023-09-19T04:32:30;100826.09;;;37.29
32827;BMP280;51059;42.058;27.986;2023-09-19T04:34:58;100822.41;;;37.46
32827;BMP280;51059;42.058;27.986;2023-09-19T04:37:26;100807.50;;;37.21
32827;BMP280;51059;42.058;27.986;2023-09-19T04:39:52;100822.38;;;37.33
32827;BMP280;51059;42.058;27.986;2023-09-19T04:42:18;100802.28;;;37.21
32827;BMP280;51059;42.058;27.986;2023-09-19T04:44:44;100806.31;;;37.12
32827;BMP280;51059;42.058;27.986;2023-09-19T04:47:10;100818.31;;;37.56
32827;BMP280;51059;42.058;27.986;2023-09-19T04:49:37;100815.13;;;37.38
32827;BMP280;51059;42.058;27.986;2023-09-19T04:52:05;100814.97;;;36.84
32827;BMP280;51059;42.058;27.986;2023-09-19T04:54:31;100814.50;;;37.06
32827;BMP280;51059;42.058;27.986;2023-09-19T04:56:57;100821.56;;;37.60
32827;BMP280;51059;42.058;27.986;2023-09-19T04:59:23;100803.78;;;37.39
32827;BMP280;51059;42.058;27.986;2023-09-19T05:01:49;100808.13;;;36.83
32827;BMP280;51059;42.058;27.986;2023-09-19T05:04:15;100806.34;;;38.20
32827;BMP280;51059;42.058;27.986;2023-09-19T05:06:41;100802.09;;;37.51
32827;BMP280;51059;42.058;27.986;2023-09-19T05:09:06;100810.00;;;37.50
32827;BMP280;51059;42.058;27.986;2023-09-19T05:11:33;100815.88;;;36.24
32827;BMP280;51059;42.058;27.986;2023-09-19T05:13:59;100809.34;;;37.87
32827;BMP280;51059;42.058;27.986;2023-09-19T05:16:30;100801.72;;;38.11
32827;BMP280;51059;42.058;27.986;2023-09-19T05:18:57;100808.97;;;37.25
32827;BMP280;51059;42.058;27.986;2023-09-19T05:21:27;100798.97;;;38.26
32827;BMP280;51059;42.058;27.986;2023-09-19T05:23:56;100796.69;;;36.70
32827;BMP280;51059;42.058;27.986;2023-09-19T05:26:23;100804.44;;;37.00
32827;BMP280;51059;42.058;27.986;2023-09-19T05:28:49;100804.16;;;37.46
32827;BMP280;51059;42.058;27.986;2023-09-19T05:31:15;100804.59;;;36.69
32827;BMP280;51059;42.058;27.986;2023-09-19T05:33:43;100791.19;;;36.76
32827;BMP280;51059;42.058;27.986;2023-09-19T05:36:09;100804.75;;;36.81
32827;BMP280;51059;42.058;27.986;2023-09-19T05:38:37;100793.53;;;37.22
32827;BMP280;51059;42.058;27.986;2023-09-19T05:41:06;100806.81;;;36.46
32827;BMP280;51059;42.058;27.986;2023-09-19T05:43:32;100802.44;;;36.61
32827;BMP280;51059;42.058;27.986;2023-09-19T05:45:59;100790.53;;;36.58
32827;BMP280;51059;42.058;27.986;2023-09-19T05:48:27;100796.94;;;36.37
32827;BMP280;51059;42.058;27.986;2023-09-19T05:50:52;100781.72;;;36.60
32827;BMP280;51059;42.058;27.986;2023-09-19T05:53:19;100778.06;;;35.89
32827;BMP280;51059;42.058;27.986;2023-09-19T05:55:45;100787.06;;;36.57
32827;BMP280;51059;42.058;27.986;2023-09-19T05:58:11;100782.38;;;37.34
32827;BMP280;51059;42.058;27.986;2023-09-19T06:00:40;100807.50;;;36.04
32827;BMP280;51059;42.058;27.986;2023-09-19T06:03:08;100790.50;;;37.70
32827;BMP280;51059;42.058;27.986;2023-09-19T06:05:35;100795.72;;;37.96
32827;BMP280;51059;42.058;27.986;2023-09-19T06:08:01;100800.69;;;37.32
32827;BMP280;51059;42.058;27.986;2023-09-19T06:10:34;100801.00;;;37.00
32827;BMP280;51059;42.058;27.986;2023-09-19T06:13:03;100810.63;;;36.11
32827;BMP280;51059;42.058;27.986;2023-09-19T06:15:35;100805.09;;;36.75
32827;BMP280;51059;42.058;27.986;2023-09-19T06:18:01;100811.41;;;37.00
32827;BMP280;51059;42.058;27.986;2023-09-19T06:20:30;100800.34;;;37.65
32827;BMP280;51059;42.058;27.986;2023-09-19T06:22:58;100808.00;;;38.21
32827;BMP280;51059;42.058;27.986;2023-09-19T06:25:24;100823.78;;;37.52
32827;BMP280;51059;42.058;27.986;2023-09-19T06:27:52;100818.94;;;37.04
32827;BMP280;51059;42.058;27.986;2023-09-19T06:30:20;100823.53;;;37.97
32827;BMP280;51059;42.058;27.986;2023-09-19T06:32:46;100825.94;;;38.00
32827;BMP280;51059;42.058;27.986;2023-09-19T06:35:13;100811.91;;;38.28
32827;BMP280;51059;42.058;27.986;2023-09-19T06:37:41;100815.81;;;38.86
32827;BMP280;51059;42.058;27.986;2023-09-19T06:40:08;100817.66;;;39.21
32827;BMP280;51059;42.058;27.986;2023-09-19T06:42:42;100820.53;;;38.93
32827;BMP280;51059;42.058;27.986;2023-09-19T06:45:10;100833.66;;;37.88
32827;BMP280;51059;42.058;27.986;2023-09-19T06:47:46;100821.34;;;37.49
32827;BMP280;51059;42.058;27.986;2023-09-19T06:50:20;100816.69;;;38.98
32827;BMP280;51059;42.058;27.986;2023-09-19T06:52:52;100815.75;;;38.74
32827;BMP280;51059;42.058;27.986;2023-09-19T06:55:22;100814.00;;;39.36
32827;BMP280;51059;42.058;27.986;2023-09-19T06:57:52;100814.41;;;39.54
32827;BMP280;51059;42.058;27.986;2023-09-19T07:00:20;100829.19;;;38.93
32827;BMP280;51059;42.058;27.986;2023-09-19T07:02:58;100828.63;;;38.12
32827;BMP280;51059;42.058;27.986;2023-09-19T07:05:32;100813.00;;;38.63
32827;BMP280;51059;42.058;27.986;2023-09-19T07:08:01;100812.88;;;38.90
32827;BMP280;51059;42.058;27.986;2023-09-19T07:10:28;100829.66;;;40.08
32827;BMP280;51059;42.058;27.986;2023-09-19T07:13:02;100839.31;;;39.23
32827;BMP280;51059;42.058;27.986;2023-09-19T07:15:29;100823.47;;;39.13
32827;BMP280;51059;42.058;27.986;2023-09-19T07:17:56;100814.69;;;38.25
32827;BMP280;51059;42.058;27.986;2023-09-19T07:20:24;100818.31;;;37.56
32827;BMP280;51059;42.058;27.986;2023-09-19T07:22:53;100826.28;;;40.41
32827;BMP280;51059;42.058;27.986;2023-09-19T07:25:25;100816.03;;;40.16
32827;BMP280;51059;42.058;27.986;2023-09-19T07:27:52;100821.69;;;40.33
32827;BMP280;51059;42.058;27.986;2023-09-19T07:30:17;100822.16;;;39.68
32827;BMP280;51059;42.058;27.986;2023-09-19T07:32:44;100823.16;;;40.02
32827;BMP280;51059;42.058;27.986;2023-09-19T07:35:10;100820.59;;;40.92
32827;BMP280;51059;42.058;27.986;2023-09-19T07:37:37;100825.94;;;39.76
32827;BMP280;51059;42.058;27.986;2023-09-19T07:40:03;100813.31;;;39.93
32827;BMP280;51059;42.058;27.986;2023-09-19T07:42:36;100812.28;;;40.30
32827;BMP280;51059;42.058;27.986;2023-09-19T07:45:09;100820.81;;;40.67
32827;BMP280;51059;42.058;27.986;2023-09-19T07:47:34;100831.47;;;40.99
32827;BMP280;51059;42.058;27.986;2023-09-19T07:50:02;100815.22;;;42.34
32827;BMP280;51059;42.058;27.986;2023-09-19T07:52:30;100821.13;;;40.52
32827;BMP280;51059;42.058;27.986;2023-09-19T07:54:56;100825.81;;;40.59
32827;BMP280;51059;42.058;27.986;2023-09-19T07:57:23;100814.00;;;39.60
32827;BMP280;51059;42.058;27.986;2023-09-19T07:59:49;100816.16;;;41.16
32827;BMP280;51059;42.058;27.986;2023-09-19T08:02:14;100822.63;;;41.44
32827;BMP280;51059;42.058;27.986;2023-09-19T08:04:44;100814.94;;;40.76
32827;BMP280;51059;42.058;27.986;2023-09-19T08:07:12;100828.44;;;39.65
32827;BMP280;51059;42.058;27.986;2023-09-19T08:09:39;100825.56;;;40.85
32827;BMP280;51059;42.058;27.986;2023-09-19T08:12:08;100831.66;;;40.28
32827;BMP280;51059;42.058;27.986;2023-09-19T08:14:36;100822.94;;;39.08
32827;BMP280;51059;42.058;27.986;2023-09-19T08:17:03;100826.00;;;39.75
32827;BMP280;51059;42.058;27.986;2023-09-19T08:19:34;100831.56;;;41.31
32827;BMP280;51059;42.058;27.986;2023-09-19T08:22:00;100813.66;;;40.01
32827;BMP280;51059;42.058;27.986;2023-09-19T08:24:30;100839.13;;;41.56
32827;BMP280;51059;42.058;27.986;2023-09-19T08:26:57;100834.94;;;40.54
32827;BMP280;51059;42.058;27.986;2023-09-19T08:29:24;100830.22;;;40.24
32827;BMP280;51059;42.058;27.986;2023-09-19T08:31:57;100821.88;;;40.07
32827;BMP280;51059;42.058;27.986;2023-09-19T08:34:24;100828.28;;;40.38
32827;BMP280;51059;42.058;27.986;2023-09-19T08:36:54;100830.72;;;40.74
32827;BMP280;51059;42.058;27.986;2023-09-19T08:39:23;100826.63;;;41.16
32827;BMP280;51059;42.058;27.986;2023-09-19T08:41:56;100829.41;;;41.46
32827;BMP280;51059;42.058;27.986;2023-09-19T08:44:22;100839.75;;;41.16
32827;BMP280;51059;42.058;27.986;2023-09-19T08:46:54;100829.84;;;42.06
32827;BMP280;51059;42.058;27.986;2023-09-19T08:49:33;100835.47;;;41.91
32827;BMP280;51059;42.058;27.986;2023-09-19T08:52:20;100825.81;;;42.84
32827;BMP280;51059;42.058;27.986;2023-09-19T08:54:47;100822.03;;;42.25
32827;BMP280;51059;42.058;27.986;2023-09-19T08:57:16;100821.72;;;41.66
32827;BMP280;51059;42.058;27.986;2023-09-19T08:59:51;100820.16;;;41.42
32827;BMP280;51059;42.058;27.986;2023-09-19T09:02:18;100821.19;;;41.40
32827;BMP280;51059;42.058;27.986;2023-09-19T09:04:45;100810.72;;;41.29
32827;BMP280;51059;42.058;27.986;2023-09-19T09:07:13;100816.69;;;41.42
32827;BMP280;51059;42.058;27.986;2023-09-19T09:09:40;100804.91;;;40.47
32827;BMP280;51059;42.058;27.986;2023-09-19T09:12:13;100819.88;;;41.24
32827;BMP280;51059;42.058;27.986;2023-09-19T09:14:46;100819.19;;;41.75
32827;BMP280;51059;42.058;27.986;2023-09-19T09:17:14;100809.78;;;42.05
32827;BMP280;51059;42.058;27.986;2023-09-19T09:19:40;100804.75;;;41.27
32827;BMP280;51059;42.058;27.986;2023-09-19T09:22:11;100809.16;;;41.48
32827;BMP280;51059;42.058;27.986;2023-09-19T09:24:53;100798.72;;;41.04
32827;BMP280;51059;42.058;27.986;2023-09-19T09:27:20;100799.03;;;41.33
32827;BMP280;51059;42.058;27.986;2023-09-19T09:29:50;100802.50;;;41.87
32827;BMP280;51059;42.058;27.986;2023-09-19T09:34:57;100791.97;;;41.44
32827;BMP280;51059;42.058;27.986;2023-09-19T09:37:24;100793.75;;;40.10
32827;BMP280;51059;42.058;27.986;2023-09-19T09:39:59;100796.31;;;41.56
32827;BMP280;51059;42.058;27.986;2023-09-19T09:42:44;100800.72;;;41.66
32827;BMP280;51059;42.058;27.986;2023-09-19T09:45:22;100792.38;;;40.96
32827;BMP280;51059;42.058;27.986;2023-09-19T09:48:09;100795.59;;;42.79
32827;BMP280;51059;42.058;27.986;2023-09-19T09:50:49;100794.88;;;41.52
32827;BMP280;51059;42.058;27.986;2023-09-19T09:53:23;100778.41;;;41.18
32827;BMP280;51059;42.058;27.986;2023-09-19T09:56:00;100783.53;;;42.05
32827;BMP280;51059;42.058;27.986;2023-09-19T09:58:27;100769.44;;;42.27
32827;BMP280;51059;42.058;27.986;2023-09-19T10:00:56;100771.66;;;40.70
32827;BMP280;51059;42.058;27.986;2023-09-19T10:03:33;100769.75;;;39.57
32827;BMP280;51059;42.058;27.986;2023-09-19T10:06:00;100774.69;;;40.77
32827;BMP280;51059;42.058;27.986;2023-09-19T10:12:00;100766.66;;;40.67
32827;BMP280;51059;42.058;27.986;2023-09-19T10:14:30;100760.19;;;39.80
32827;BMP280;51059;42.058;27.986;2023-09-19T10:17:02;100764.44;;;40.06
32827;BMP280;51059;42.058;27.986;2023-09-19T10:19:45;100772.34;;;39.57
32827;BMP280;51059;42.058;27.986;2023-09-19T10:22:16;100757.31;;;39.12
32827;BMP280;51059;42.058;27.986;2023-09-19T10:24:47;100758.94;;;39.98
32827;BMP280;51059;42.058;27.986;2023-09-19T10:27:17;100765.69;;;40.68
32827;BMP280;51059;42.058;27.986;2023-09-19T10:29:48;100760.16;;;41.17
32827;BMP280;51059;42.058;27.986;2023-09-19T10:32:16;100762.47;;;40.98
32827;BMP280;51059;42.058;27.986;2023-09-19T10:34:48;100745.97;;;40.19
32827;BMP280;51059;42.058;27.986;2023-09-19T10:37:16;100745.41;;;41.48
32827;BMP280;51059;42.058;27.986;2023-09-19T10:39:50;100749.78;;;39.56
32827;BMP280;51059;42.058;27.986;2023-09-19T10:42:19;100742.34;;;40.09
32827;BMP280;51059;42.058;27.986;2023-09-19T10:44:52;100753.50;;;39.77
32827;BMP280;51059;42.058;27.986;2023-09-19T10:47:20;100752.22;;;39.94
32827;BMP280;51059;42.058;27.986;2023-09-19T10:49:49;100739.28;;;40.15
32827;BMP280;51059;42.058;27.986;2023-09-19T10:52:19;100742.94;;;40.92
32827;BMP280;51059;42.058;27.986;2023-09-19T10:54:48;100740.19;;;39.91
32827;BMP280;51059;42.058;27.986;2023-09-19T10:57:23;100740.97;;;39.69
32827;BMP280;51059;42.058;27.986;2023-09-19T11:00:08;100737.00;;;40.67
32827;BMP280;51059;42.058;27.986;2023-09-19T11:05:41;100735.50;;;40.19
32827;BMP280;51059;42.058;27.986;2023-09-19T11:08:07;100729.97;;;40.57
32827;BMP280;51059;42.058;27.986;2023-09-19T11:10:50;100723.22;;;41.20
32827;BMP280;51059;42.058;27.986;2023-09-19T11:13:27;100718.75;;;40.55
32827;BMP280;51059;42.058;27.986;2023-09-19T11:16:04;100719.16;;;39.10
32827;BMP280;51059;42.058;27.986;2023-09-19T11:26:45;100714.25;;;40.34
32827;BMP280;51059;42.058;27.986;2023-09-19T11:29:32;100695.78;;;38.96
32827;BMP280;51059;42.058;27.986;2023-09-19T11:32:00;100700.91;;;37.71
32827;BMP280;51059;42.058;27.986;2023-09-19T11:34:45;100697.38;;;39.46
32827;BMP280;51059;42.058;27.986;2023-09-19T11:40:06;100702.44;;;39.12
32827;BMP280;51059;42.058;27.986;2023-09-19T11:42:42;100700.22;;;38.70
32827;BMP280;51059;42.058;27.986;2023-09-19T11:48:14;100696.59;;;39.09
32827;BMP280;51059;42.058;27.986;2023-09-19T11:50:48;100684.22;;;38.50
32827;BMP280;51059;42.058;27.986;2023-09-19T11:53:16;100688.03;;;39.78
32827;BMP280;51059;42.058;27.986;2023-09-19T11:55:43;100691.84;;;39.62
32827;BMP280;51059;42.058;27.986;2023-09-19T11:58:09;100693.13;;;38.48
32827;BMP280;51059;42.058;27.986;2023-09-19T12:00:37;100692.00;;;39.00
32827;BMP280;51059;42.058;27.986;2023-09-19T12:03:08;100682.84;;;39.54
32827;BMP280;51059;42.058;27.986;2023-09-19T12:05:39;100671.50;;;39.77
32827;BMP280;51059;42.058;27.986;2023-09-19T12:08:05;100679.16;;;40.36
32827;BMP280;51059;42.058;27.986;2023-09-19T12:10:50;100678.44;;;40.01
32827;BMP280;51059;42.058;27.986;2023-09-19T12:13:19;100667.53;;;38.53
32827;BMP280;51059;42.058;27.986;2023-09-19T12:15:46;100672.09;;;40.26
32827;BMP280;51059;42.058;27.986;2023-09-19T12:18:41;100672.91;;;41.36
32827;BMP280;51059;42.058;27.986;2023-09-19T12:21:30;100679.47;;;41.31
32827;BMP280;51059;42.058;27.986;2023-09-19T12:24:04;100667.53;;;39.72
32827;BMP280;51059;42.058;27.986;2023-09-19T12:26:41;100664.75;;;39.98
32827;BMP280;51059;42.058;27.986;2023-09-19T12:29:15;100666.81;;;39.93
32827;BMP280;51059;42.058;27.986;2023-09-19T12:31:56;100678.38;;;40.91
32827;BMP280;51059;42.058;27.986;2023-09-19T12:34:27;100666.94;;;40.81
32827;BMP280;51059;42.058;27.986;2023-09-19T12:39:39;100667.91;;;39.78
32827;BMP280;51059;42.058;27.986;2023-09-19T12:42:11;100679.75;;;40.63
32827;BMP280;51059;42.058;27.986;2023-09-19T12:44:50;100666.13;;;41.02
32827;BMP280;51059;42.058;27.986;2023-09-19T12:47:20;100665.13;;;39.22
32827;BMP280;51059;42.058;27.986;2023-09-19T12:50:15;100670.16;;;41.37
32827;BMP280;51059;42.058;27.986;2023-09-19T12:52:48;100670.03;;;40.86
32827;BMP280;51059;42.058;27.986;2023-09-19T12:55:29;100658.00;;;40.94
32827;BMP280;51059;42.058;27.986;2023-09-19T12:58:02;100652.88;;;41.67
32827;BMP280;51059;42.058;27.986;2023-09-19T13:00:39;100655.97;;;40.09
32827;BMP280;51059;42.058;27.986;2023-09-19T13:03:29;100647.50;;;39.61
32827;BMP280;51059;42.058;27.986;2023-09-19T13:06:02;100653.84;;;40.14
32827;BMP280;51059;42.058;27.986;2023-09-19T13:08:34;100651.41;;;39.43
32827;BMP280;51059;42.058;27.986;2023-09-19T13:11:14;100651.00;;;39.72
32827;BMP280;51059;42.058;27.986;2023-09-19T13:14:17;100650.97;;;40.84
32827;BMP280;51059;42.058;27.986;2023-09-19T13:17:03;100647.88;;;39.90
32827;BMP280;51059;42.058;27.986;2023-09-19T13:19:42;100641.44;;;40.06
32827;BMP280;51059;42.058;27.986;2023-09-19T13:25:02;100640.84;;;39.45
32827;BMP280;51059;42.058;27.986;2023-09-19T13:27:29;100646.28;;;39.77
32827;BMP280;51059;42.058;27.986;2023-09-19T13:29:55;100642.78;;;40.44
32827;BMP280;51059;42.058;27.986;2023-09-19T13:32:20;100643.13;;;39.61
32827;BMP280;51059;42.058;27.986;2023-09-19T13:34:46;100640.84;;;39.45
32827;BMP280;51059;42.058;27.986;2023-09-19T13:37:12;100635.16;;;39.04
32827;BMP280;51059;42.058;27.986;2023-09-19T13:39:39;100638.81;;;38.65
32827;BMP280;51059;42.058;27.986;2023-09-19T13:42:13;100640.34;;;39.28
32827;BMP280;51059;42.058;27.986;2023-09-19T13:44:39;100644.13;;;39.71
32827;BMP280;51059;42.058;27.986;2023-09-19T13:47:06;100634.63;;;38.01
32827;BMP280;51059;42.058;27.986;2023-09-19T13:49:35;100642.03;;;39.17
32827;BMP280;51059;42.058;27.986;2023-09-19T13:52:02;100641.97;;;38.94
32827;BMP280;51059;42.058;27.986;2023-09-19T13:54:31;100641.00;;;40.11
32827;BMP280;51059;42.058;27.986;2023-09-19T13:56:57;100627.28;;;39.40
32827;BMP280;51059;42.058;27.986;2023-09-19T13:59:23;100625.84;;;39.12
32827;BMP280;51059;42.058;27.986;2023-09-19T14:01:50;100626.47;;;39.03
32827;BMP280;51059;42.058;27.986;2023-09-19T14:04:16;100624.53;;;39.41
32827;BMP280;51059;42.058;27.986;2023-09-19T14:06:42;100629.97;;;39.96
32827;BMP280;51059;42.058;27.986;2023-09-19T14:09:09;100630.25;;;39.23
32827;BMP280;51059;42.058;27.986;2023-09-19T14:11:36;100627.16;;;38.82
32827;BMP280;51059;42.058;27.986;2023-09-19T14:14:02;100626.38;;;39.17
32827;BMP280;51059;42.058;27.986;2023-09-19T14:16:30;100619.59;;;38.54
32827;BMP280;51059;42.058;27.986;2023-09-19T14:18:57;100633.69;;;38.75
32827;BMP280;51059;42.058;27.986;2023-09-19T14:21:23;100629.47;;;39.91
32827;BMP280;51059;42.058;27.986;2023-09-19T14:23:49;100630.81;;;39.39
32827;BMP280;51059;42.058;27.986;2023-09-19T14:26:15;100628.56;;;39.10
32827;BMP280;51059;42.058;27.986;2023-09-19T14:28:42;100629.41;;;37.75
32827;BMP280;51059;42.058;27.986;2023-09-19T14:31:09;100633.06;;;38.60
32827;BMP280;51059;42.058;27.986;2023-09-19T14:33:37;100629.66;;;38.84
32827;BMP280;51059;42.058;27.986;2023-09-19T14:36:06;100629.72;;;39.06
32827;BMP280;51059;42.058;27.986;2023-09-19T14:38:33;100626.75;;;37.49
32827;BMP280;51059;42.058;27.986;2023-09-19T14:41:03;100623.81;;;37.28
32827;BMP280;51059;42.058;27.986;2023-09-19T14:43:30;100629.03;;;38.18
32827;BMP280;51059;42.058;27.986;2023-09-19T14:46:07;100628.38;;;38.41